createdAt,value
2016-03-18T00:00:59.131Z,-0.36
2016-03-18T00:01:59.117Z,-0.31
2016-03-18T00:02:59.121Z,-0.31
2016-03-18T00:03:59.154Z,-0.36
2016-03-18T00:04:59.125Z,-0.35
2016-03-18T00:05:59.113Z,-0.39
2016-03-18T00:06:58.996Z,-0.33
2016-03-18T00:07:59.123Z,-0.33
2016-03-18T00:08:59.112Z,-0.54
2016-03-18T00:09:59.098Z,-0.33
2016-03-18T00:10:59.100Z,-0.31
2016-03-18T00:11:59.104Z,-0.41
2016-03-18T00:12:59.106Z,-0.36
2016-03-18T00:13:59.109Z,-0.39
2016-03-18T00:14:59.111Z,-0.48
2016-03-18T00:15:59.099Z,-0.45
2016-03-18T00:16:59.086Z,-0.48
2016-03-18T00:17:59.105Z,-0.48
2016-03-18T00:18:59.091Z,-0.48
2016-03-18T00:19:59.077Z,-0.49
2016-03-18T00:20:59.113Z,-0.51
2016-03-18T00:21:58.943Z,-0.49
2016-03-18T00:22:59.086Z,-0.57
2016-03-18T00:23:59.089Z,-0.59
2016-03-18T00:24:59.091Z,-0.57
2016-03-18T00:25:59.079Z,-0.62
2016-03-18T00:26:59.082Z,-0.6
2016-03-18T00:27:59.084Z,-0.64
2016-03-18T00:28:59.071Z,-0.54
2016-03-18T00:29:59.074Z,-0.6
2016-03-18T00:30:59.077Z,-0.67
2016-03-18T00:31:59.081Z,-0.6
2016-03-18T00:32:59.083Z,-0.72
2016-03-18T00:33:59.070Z,-0.7
2016-03-18T00:34:59.072Z,-0.74
2016-03-18T00:35:59.075Z,-0.69
2016-03-18T00:36:59.250Z,-0.72
2016-03-18T00:37:59.066Z,-0.75
2016-03-18T00:38:59.068Z,-0.78
2016-03-18T00:39:59.071Z,-0.74
2016-03-18T00:40:59.073Z,-0.8
2016-03-18T00:41:59.060Z,-0.75
2016-03-18T00:42:59.062Z,-0.81
2016-03-18T00:43:59.050Z,-0.93
2016-03-18T00:44:59.053Z,-0.84
2016-03-18T00:45:59.070Z,-0.87
2016-03-18T00:46:59.042Z,-0.89
2016-03-18T00:47:59.045Z,-0.93
2016-03-18T00:48:59.048Z,-0.97
2016-03-18T00:49:59.051Z,-0.99
2016-03-18T00:50:59.053Z,-0.97
2016-03-18T00:51:59.040Z,-1
2016-03-18T00:52:59.058Z,-0.93
2016-03-18T00:53:59.045Z,-1
2016-03-18T00:54:59.048Z,-0.91
2016-03-18T00:55:59.035Z,-1
2016-03-18T00:56:58.882Z,-1.03
2016-03-18T00:57:59.041Z,-1.01
2016-03-18T00:58:59.028Z,-1.01
2016-03-18T00:59:59.015Z,-1
2016-03-18T01:00:59.034Z,-1
2016-03-18T01:01:59.020Z,-0.96
2016-03-18T01:02:59.039Z,-0.97
2016-03-18T01:03:59.025Z,-0.97
2016-03-18T01:04:59.044Z,-1.03
2016-03-18T01:05:59.016Z,-0.99
2016-03-18T01:06:59.096Z,-1
2016-03-18T01:07:59.026Z,-1.06
2016-03-18T01:08:59.012Z,-0.85
2016-03-18T01:09:59.015Z,-1
2016-03-18T01:10:58.862Z,-1.01
2016-03-18T01:11:58.864Z,-1.01
2016-03-18T01:12:59.008Z,-0.99
2016-03-18T01:13:59.026Z,-0.97
2016-03-18T01:14:59.013Z,-1.04
2016-03-18T01:15:59.016Z,-1.03
2016-03-18T01:16:59.018Z,-1.01
2016-03-18T01:17:58.990Z,-1.07
2016-03-18T01:18:58.992Z,-1.03
2016-03-18T01:19:59.011Z,-1.06
2016-03-18T01:20:58.998Z,-1.15
2016-03-18T01:21:59.001Z,-1.07
2016-03-18T01:22:59.003Z,-1.11
2016-03-18T01:23:58.991Z,-1.11
2016-03-18T01:24:58.994Z,-1.11
2016-03-18T01:25:58.996Z,-1.17
2016-03-18T01:26:58.999Z,-1.18
2016-03-18T01:27:58.986Z,-1.3
2016-03-18T01:28:58.988Z,-1.21
2016-03-18T01:29:58.991Z,-1.22
2016-03-18T01:30:58.977Z,-1.19
2016-03-18T01:31:58.980Z,-1.15
2016-03-18T01:32:58.983Z,-1.22
2016-03-18T01:33:58.985Z,-1.21
2016-03-18T01:34:58.974Z,-1.19
2016-03-18T01:35:58.976Z,-1.25
2016-03-18T01:36:58.979Z,-1.11
2016-03-18T01:37:58.981Z,-1.11
2016-03-18T01:38:58.968Z,-1.04
2016-03-18T01:39:58.971Z,-1.14
2016-03-18T01:40:58.974Z,-1.14
2016-03-18T01:41:58.992Z,-1.11
2016-03-18T01:42:58.963Z,-1.21
2016-03-18T01:43:58.982Z,-1.14
2016-03-18T01:44:58.953Z,-1.24
2016-03-18T01:45:58.956Z,-1.19
2016-03-18T01:46:58.973Z,-1.17
2016-03-18T01:47:58.961Z,-1.17
2016-03-18T01:48:58.948Z,-1.25
2016-03-18T01:49:58.966Z,-1.22
2016-03-18T01:50:58.985Z,-1.25
2016-03-18T01:51:58.941Z,-1.29
2016-03-18T01:52:58.959Z,-1.22
2016-03-18T01:53:58.947Z,-1.38
2016-03-18T01:54:58.949Z,-1.39
2016-03-18T01:55:58.967Z,-1.38
2016-03-18T01:56:58.938Z,-1.3
2016-03-18T01:57:58.942Z,-1.27
2016-03-18T01:58:58.944Z,-1.27
2016-03-18T01:59:58.931Z,-1.27
2016-03-18T02:00:58.949Z,-1.27
2016-03-18T02:01:58.936Z,-1.24
2016-03-18T02:02:58.939Z,-1.27
2016-03-18T02:03:58.942Z,-1.19
2016-03-18T02:04:58.929Z,-1.24
2016-03-18T02:05:58.916Z,-1.3
2016-03-18T02:06:58.919Z,-1.22
2016-03-18T02:07:58.938Z,-1.25
2016-03-18T02:08:58.924Z,-1.3
2016-03-18T02:09:58.911Z,-1.25
2016-03-18T02:10:58.929Z,-1.22
2016-03-18T02:11:58.932Z,-1.14
2016-03-18T02:12:58.903Z,-1.19
2016-03-18T02:13:58.907Z,-1.21
2016-03-18T02:14:58.893Z,-1.17
2016-03-18T02:15:58.896Z,-1.19
2016-03-18T02:16:58.915Z,-1.21
2016-03-18T02:17:58.902Z,-1.29
2016-03-18T02:18:58.904Z,-1.25
2016-03-18T02:19:58.922Z,-1.29
2016-03-18T02:20:58.894Z,-1.29
2016-03-18T02:21:58.897Z,-1.4
2016-03-18T02:22:58.900Z,-1.35
2016-03-18T02:23:58.887Z,-1.35
2016-03-18T02:24:58.936Z,-1.4
2016-03-18T02:25:58.891Z,-1.36
2016-03-18T02:26:58.878Z,-1.35
2016-03-18T02:27:58.897Z,-1.36
2016-03-18T02:28:58.884Z,-1.35
2016-03-18T02:29:58.886Z,-1.4
2016-03-18T02:30:58.874Z,-1.4
2016-03-18T02:31:58.877Z,-1.38
2016-03-18T02:32:58.879Z,-1.45
2016-03-18T02:33:58.882Z,-1.48
2016-03-18T02:34:58.885Z,-1.45
2016-03-18T02:35:58.887Z,-1.48
2016-03-18T02:36:58.875Z,-1.54
2016-03-18T02:37:58.861Z,-1.43
2016-03-18T02:38:58.161Z,-1.5
2016-03-18T02:39:58.862Z,-1.53
2016-03-18T02:40:58.892Z,-1.54
2016-03-18T02:41:58.864Z,-1.51
2016-03-18T02:42:59.476Z,-1.66
2016-03-18T02:43:58.854Z,-1.63
2016-03-18T02:44:58.873Z,-1.66
2016-03-18T02:45:58.843Z,-1.6
2016-03-18T02:46:58.862Z,-1.68
2016-03-18T02:47:58.833Z,-1.72
2016-03-18T02:48:58.868Z,-1.72
2016-03-18T02:49:58.823Z,-1.82
2016-03-18T02:50:58.842Z,-1.79
2016-03-18T02:51:58.829Z,-1.78
2016-03-18T02:52:58.832Z,-1.74
2016-03-18T02:53:58.834Z,-1.74
2016-03-18T02:54:58.821Z,-1.74
2016-03-18T02:55:58.824Z,-1.84
2016-03-18T02:56:58.811Z,-1.89
2016-03-18T02:57:58.829Z,-1.86
2016-03-18T02:58:58.816Z,-1.82
2016-03-18T02:59:58.834Z,-1.78
2016-03-18T03:00:58.805Z,-1.82
2016-03-18T03:01:58.824Z,-1.74
2016-03-18T03:02:58.811Z,-1.69
2016-03-18T03:03:58.798Z,-1.64
2016-03-18T03:04:58.801Z,-1.71
2016-03-18T03:05:58.805Z,-1.79
2016-03-18T03:06:58.807Z,-1.74
2016-03-18T03:07:58.825Z,-1.75
2016-03-18T03:08:58.812Z,-1.68
2016-03-18T03:09:58.799Z,-1.69
2016-03-18T03:10:58.801Z,-1.82
2016-03-18T03:11:58.789Z,-1.82
2016-03-18T03:12:58.791Z,-1.84
2016-03-18T03:13:58.794Z,-1.86
2016-03-18T03:14:58.796Z,-1.82
2016-03-18T03:15:58.784Z,-1.84
2016-03-18T03:16:58.786Z,-1.86
2016-03-18T03:17:58.774Z,-1.81
2016-03-18T03:18:58.776Z,-1.87
2016-03-18T03:19:58.763Z,-1.93
2016-03-18T03:20:58.766Z,-1.9
2016-03-18T03:21:58.785Z,-1.94
2016-03-18T03:22:58.771Z,-1.92
2016-03-18T03:23:58.806Z,-1.99
2016-03-18T03:24:58.761Z,-2
2016-03-18T03:25:58.764Z,-2.04
2016-03-18T03:26:58.767Z,-1.97
2016-03-18T03:27:58.769Z,-1.96
2016-03-18T03:28:58.756Z,-2.02
2016-03-18T03:29:58.775Z,-1.99
2016-03-18T03:30:58.746Z,-2.04
2016-03-18T03:31:58.780Z,-1.99
2016-03-18T03:32:58.783Z,-2.14
2016-03-18T03:33:58.754Z,-2.1
2016-03-18T03:34:58.758Z,-1.97
2016-03-18T03:35:58.760Z,-2.14
2016-03-18T03:36:58.747Z,-2.04
2016-03-18T03:37:58.765Z,-1.94
2016-03-18T03:38:58.736Z,-1.94
2016-03-18T03:39:58.738Z,-1.86
2016-03-18T03:40:58.741Z,-1.87
2016-03-18T03:41:58.744Z,-1.86
2016-03-18T03:42:58.747Z,-1.97
2016-03-18T03:43:58.734Z,-1.92
2016-03-18T03:44:58.721Z,-1.97
2016-03-18T03:45:58.740Z,-1.96
2016-03-18T03:46:58.727Z,-1.96
2016-03-18T03:47:58.745Z,-1.96
2016-03-18T03:48:58.732Z,-2
2016-03-18T03:49:58.719Z,-2.1
2016-03-18T03:50:58.738Z,-2.07
2016-03-18T03:51:58.709Z,-2.1
2016-03-18T03:52:58.727Z,-2.2
2016-03-18T03:53:58.714Z,-2.14
2016-03-18T03:54:58.717Z,-2.13
2016-03-18T03:55:58.720Z,-2.26
2016-03-18T03:56:58.706Z,-2.1
2016-03-18T03:57:58.709Z,-2.17
2016-03-18T03:58:58.711Z,-2.25
2016-03-18T03:59:58.699Z,-2.2
2016-03-18T04:00:58.717Z,-2.25
2016-03-18T04:01:58.705Z,-2.25
2016-03-18T04:02:58.692Z,-2.26
2016-03-18T04:03:58.694Z,-2.22
2016-03-18T04:04:58.541Z,-2.18
2016-03-18T04:05:58.684Z,-2.22
2016-03-18T04:06:58.686Z,-2.22
2016-03-18T04:07:58.681Z,-2.1
2016-03-18T04:08:58.684Z,-2.22
2016-03-18T04:09:58.701Z,-2.17
2016-03-18T04:10:58.673Z,-2.11
2016-03-18T04:11:58.676Z,-2.08
2016-03-18T04:12:58.694Z,-2.08
2016-03-18T04:13:58.681Z,-2.15
2016-03-18T04:14:58.684Z,-2.2
2016-03-18T04:15:58.687Z,-2.13
2016-03-18T04:16:58.689Z,-2.18
2016-03-18T04:17:58.661Z,-2.1
2016-03-18T04:18:58.678Z,-2.11
2016-03-18T04:19:58.650Z,-2
2016-03-18T04:20:58.653Z,-1.93
2016-03-18T04:21:58.671Z,-1.96
2016-03-18T04:22:58.658Z,-1.9
2016-03-18T04:23:58.644Z,-1.87
2016-03-18T04:24:58.663Z,-1.84
2016-03-18T04:25:58.650Z,-1.93
2016-03-18T04:26:58.653Z,-1.82
2016-03-18T04:27:58.655Z,-1.89
2016-03-18T04:28:58.659Z,-1.93
2016-03-18T04:29:58.646Z,-1.99
2016-03-18T04:30:58.633Z,-2.02
2016-03-18T04:31:58.651Z,-2.04
2016-03-18T04:32:58.654Z,-2.08
2016-03-18T04:33:58.625Z,-2.23
2016-03-18T04:34:58.628Z,-2.26
2016-03-18T04:35:58.631Z,-2.18
2016-03-18T04:36:58.634Z,-2.17
2016-03-18T04:37:58.667Z,-2.2
2016-03-18T04:38:58.639Z,-2.18
2016-03-18T04:39:58.625Z,-2.22
2016-03-18T04:40:58.629Z,-2.22
2016-03-18T04:41:58.631Z,-2.23
2016-03-18T04:42:58.618Z,-2.2
2016-03-18T04:43:58.620Z,-2.25
2016-03-18T04:44:58.624Z,-2.23
2016-03-18T04:45:58.611Z,-2.28
2016-03-18T04:46:58.598Z,-2.28
2016-03-18T04:47:58.600Z,-2.22
2016-03-18T04:48:58.603Z,-2.23
2016-03-18T04:49:58.606Z,-2.2
2016-03-18T04:50:58.625Z,-2.18
2016-03-18T04:51:58.611Z,-2.25
2016-03-18T04:52:58.614Z,-2.2
2016-03-18T04:53:58.616Z,-2.22
2016-03-18T04:54:58.588Z,-2.2
2016-03-18T04:55:58.591Z,-2.25
2016-03-18T04:56:58.609Z,-2.22
2016-03-18T04:57:58.580Z,-2.28
2016-03-18T04:58:58.583Z,-2.28
2016-03-18T04:59:58.586Z,-2.26
2016-03-18T05:00:58.589Z,-2.25
2016-03-18T05:01:58.576Z,-2.17
2016-03-18T05:02:58.578Z,-2.22
2016-03-18T05:03:58.581Z,-2.23
2016-03-18T05:04:58.568Z,-2.15
2016-03-18T05:05:58.571Z,-2.18
2016-03-18T05:06:58.589Z,-2.2
2016-03-18T05:07:58.592Z,-2.18
2016-03-18T05:08:58.562Z,-2.13
2016-03-18T05:09:58.581Z,-2.18
2016-03-18T05:10:58.568Z,-2.13
2016-03-18T05:11:58.571Z,-2.07
2016-03-18T05:12:58.558Z,-2.07
2016-03-18T05:13:58.562Z,-2.13
2016-03-18T05:14:58.564Z,-2.04
2016-03-18T05:15:58.551Z,-2.1
2016-03-18T05:16:58.570Z,-2.08
2016-03-18T05:17:58.572Z,-2.08
2016-03-18T05:18:58.559Z,-2.22
2016-03-18T05:19:58.531Z,-2.02
2016-03-18T05:20:58.548Z,-2.08
2016-03-18T05:21:58.551Z,-2.07
2016-03-18T05:22:58.428Z,-2.11
2016-03-18T05:23:58.541Z,-1.99
2016-03-18T05:24:58.528Z,-1.99
2016-03-18T05:25:58.515Z,-2.02
2016-03-18T05:26:58.518Z,-1.97
2016-03-18T05:27:58.535Z,-1.99
2016-03-18T05:28:58.523Z,-1.92
2016-03-18T05:29:58.526Z,-1.9
2016-03-18T05:30:58.544Z,-1.86
2016-03-18T05:31:58.531Z,-1.84
2016-03-18T05:32:58.518Z,-1.92
2016-03-18T05:33:58.521Z,-1.89
2016-03-18T05:34:58.508Z,-1.89
2016-03-18T05:35:58.511Z,-1.92
2016-03-18T05:36:58.514Z,-1.86
2016-03-18T05:37:58.313Z,-1.81
2016-03-18T05:38:58.504Z,-1.9
2016-03-18T05:39:58.506Z,-1.81
2016-03-18T05:40:58.508Z,-1.72
2016-03-18T05:41:58.511Z,-1.74
2016-03-18T05:42:58.482Z,-1.71
2016-03-18T05:43:58.501Z,-1.74
2016-03-18T05:44:58.332Z,-1.58
2016-03-18T05:45:58.490Z,-1.63
2016-03-18T05:46:58.493Z,-1.56
2016-03-18T05:47:58.495Z,-1.58
2016-03-18T05:48:58.484Z,-1.45
2016-03-18T05:49:58.486Z,-1.43
2016-03-18T05:50:58.489Z,-1.36
2016-03-18T05:51:58.491Z,-1.24
2016-03-18T05:52:58.494Z,-1.32
2016-03-18T05:53:58.497Z,-1.17
2016-03-18T05:54:58.469Z,-1.14
2016-03-18T05:55:58.471Z,-1
2016-03-18T05:56:58.474Z,-0.97
2016-03-18T05:57:58.508Z,-0.99
2016-03-18T05:58:58.464Z,-0.81
2016-03-18T05:59:58.450Z,-0.8
2016-03-18T06:00:58.468Z,-0.7
2016-03-18T06:01:58.471Z,-0.54
2016-03-18T06:02:58.458Z,-0.56
2016-03-18T06:03:58.461Z,-0.42
2016-03-18T06:04:58.463Z,-0.39
2016-03-18T06:05:58.451Z,-0.33
2016-03-18T06:06:58.453Z,-0.12
2016-03-18T06:07:58.518Z,-0.05
2016-03-18T06:08:58.443Z,0.05
2016-03-18T06:09:58.446Z,0.15
2016-03-18T06:10:58.448Z,0.33
2016-03-18T06:11:58.435Z,0.49
2016-03-18T06:12:58.470Z,0.55
2016-03-18T06:13:58.457Z,0.68
2016-03-18T06:14:58.443Z,0.76
2016-03-18T06:15:58.446Z,0.85
2016-03-18T06:16:58.434Z,1.04
2016-03-18T06:17:58.437Z,1.13
2016-03-18T06:18:58.439Z,1.36
2016-03-18T06:19:58.425Z,1.5
2016-03-18T06:20:58.444Z,1.68
2016-03-18T06:21:58.416Z,1.88
2016-03-18T06:22:58.356Z,2.14
2016-03-18T06:23:58.421Z,2.28
2016-03-18T06:24:58.439Z,2.51
2016-03-18T06:25:58.427Z,2.7
2016-03-18T06:26:58.430Z,2.94
2016-03-18T06:27:58.432Z,3.16
2016-03-18T06:28:58.419Z,3.4
2016-03-18T06:29:58.421Z,3.49
2016-03-18T06:30:58.425Z,3.66
2016-03-18T06:31:58.411Z,3.94
2016-03-18T06:32:58.414Z,4.27
2016-03-18T06:33:58.416Z,4.66
2016-03-18T06:34:58.404Z,5.08
2016-03-18T06:35:58.407Z,5.46
2016-03-18T06:36:58.410Z,5.88
2016-03-18T06:37:58.412Z,6.15
2016-03-18T06:38:58.399Z,6.47
2016-03-18T06:39:58.402Z,6.96
2016-03-18T06:40:58.263Z,7.26
2016-03-18T06:41:58.407Z,7.46
2016-03-18T06:42:58.393Z,7.7
2016-03-18T06:43:58.413Z,7.84
2016-03-18T06:44:58.399Z,7.99
2016-03-18T06:45:58.402Z,7.98
2016-03-18T06:46:58.420Z,8.18
2016-03-18T06:47:58.407Z,8.44
2016-03-18T06:48:58.410Z,8.59
2016-03-18T06:49:58.398Z,8.77
2016-03-18T06:50:58.681Z,8.95
2016-03-18T06:51:58.403Z,9.22
2016-03-18T06:52:58.406Z,9.33
2016-03-18T06:53:58.409Z,9.48
2016-03-18T06:54:58.395Z,9.77
2016-03-18T06:55:58.414Z,10.15
2016-03-18T06:56:58.389Z,10.36
2016-03-18T06:57:58.380Z,10.48
2016-03-18T06:58:58.370Z,10.68
2016-03-18T06:59:58.345Z,10.84
2016-03-18T07:00:58.336Z,11.04
2016-03-18T07:01:58.333Z,11.31
2016-03-18T07:02:58.332Z,11.44
2016-03-18T07:03:58.330Z,11.73
2016-03-18T07:04:58.343Z,12.03
2016-03-18T07:05:58.327Z,12.11
2016-03-18T07:06:58.328Z,12.25
2016-03-18T07:07:58.329Z,12.5
2016-03-18T07:08:58.346Z,12.9
2016-03-18T07:09:58.332Z,13.17
2016-03-18T07:10:58.333Z,13.54
2016-03-18T07:11:58.319Z,13.67
2016-03-18T07:12:58.322Z,13.97
2016-03-18T07:13:58.324Z,14.22
2016-03-18T07:14:58.326Z,14.25
2016-03-18T07:15:58.328Z,14.37
2016-03-18T07:16:58.330Z,14.48
2016-03-18T07:17:58.333Z,14.61
2016-03-18T07:18:58.335Z,14.7
2016-03-18T07:19:58.337Z,14.9
2016-03-18T07:20:58.339Z,15.04
2016-03-18T07:21:58.343Z,15.11
2016-03-18T07:22:58.345Z,15.35
2016-03-18T07:23:58.332Z,15.47
2016-03-18T07:24:58.334Z,15.57
2016-03-18T07:25:58.337Z,15.63
2016-03-18T07:26:58.340Z,15.8
2016-03-18T07:27:58.343Z,16.12
2016-03-18T07:28:58.346Z,16.54
2016-03-18T07:29:58.348Z,16.64
2016-03-18T07:30:58.350Z,16.73
2016-03-18T07:31:58.354Z,17.13
2016-03-18T07:32:58.372Z,17.42
2016-03-18T07:33:58.359Z,17.68
2016-03-18T07:34:58.377Z,17.95
2016-03-18T07:35:58.380Z,18.15
2016-03-18T07:36:58.367Z,18.42
2016-03-18T07:37:58.386Z,18.76
2016-03-18T07:38:58.372Z,19.04
2016-03-18T07:39:58.375Z,19.29
2016-03-18T07:40:58.377Z,19.34
2016-03-18T07:41:58.396Z,19.39
2016-03-18T07:42:58.399Z,19.52
2016-03-18T07:43:58.385Z,19.71
2016-03-18T07:44:58.404Z,20
2016-03-18T07:45:58.391Z,20.27
2016-03-18T07:46:58.393Z,20.46
2016-03-18T07:47:58.413Z,20.83
2016-03-18T07:48:58.415Z,21.33
2016-03-18T07:49:58.418Z,21.58
2016-03-18T07:50:58.420Z,21.88
2016-03-18T07:51:58.423Z,22.28
2016-03-18T07:52:58.426Z,22.8
2016-03-18T07:53:58.444Z,23.06
2016-03-18T07:54:58.447Z,23.33
2016-03-18T07:55:58.434Z,23.52
2016-03-18T07:56:58.437Z,23.84
2016-03-18T07:57:58.456Z,24.04
2016-03-18T07:58:58.458Z,24.09
2016-03-18T07:59:58.460Z,24.1
2016-03-18T08:00:58.464Z,24.24
2016-03-18T08:01:58.466Z,24.55
2016-03-18T08:02:58.469Z,24.55
2016-03-18T08:03:58.487Z,24.58
2016-03-18T08:04:58.489Z,24.68
2016-03-18T08:05:58.492Z,24.74
2016-03-18T08:06:58.479Z,24.78
2016-03-18T08:07:58.529Z,24.92
2016-03-18T08:08:58.500Z,24.86
2016-03-18T08:09:58.518Z,25.06
2016-03-18T08:10:58.505Z,25.21
2016-03-18T08:11:58.524Z,25.22
2016-03-18T08:12:58.510Z,25.31
2016-03-18T08:13:58.529Z,25.71
2016-03-18T08:14:58.516Z,25.91
2016-03-18T08:15:58.549Z,26.03
2016-03-18T08:16:58.538Z,26.13
2016-03-18T08:17:58.540Z,26.18
2016-03-18T08:18:58.543Z,26.04
2016-03-18T08:19:58.560Z,26.03
2016-03-18T08:20:58.563Z,26.19
2016-03-18T08:21:58.566Z,26.31
2016-03-18T08:22:58.568Z,26.1
2016-03-18T08:23:58.556Z,26.11
2016-03-18T08:24:58.574Z,26.11
2016-03-18T08:25:58.576Z,26.11
2016-03-18T08:26:58.580Z,26.01
2016-03-18T08:27:58.614Z,25.86
2016-03-18T08:28:58.600Z,25.52
2016-03-18T08:29:58.620Z,25.3
2016-03-18T08:30:58.606Z,25.3
2016-03-18T08:31:58.609Z,25.24
2016-03-18T08:32:58.627Z,25.22
2016-03-18T08:33:58.630Z,25.39
2016-03-18T08:34:58.632Z,25.54
2016-03-18T08:35:58.651Z,25.7
2016-03-18T08:36:58.638Z,25.78
2016-03-18T08:37:58.641Z,26.04
2016-03-18T08:38:58.643Z,26.23
2016-03-18T08:39:58.661Z,26.07
2016-03-18T08:40:58.664Z,26.04
2016-03-18T08:41:58.666Z,26.04
2016-03-18T08:42:58.669Z,25.88
2016-03-18T08:43:58.672Z,25.67
2016-03-18T08:44:58.691Z,25.61
2016-03-18T08:45:58.678Z,25.51
2016-03-18T08:46:58.696Z,25.51
2016-03-18T08:47:58.714Z,25.71
2016-03-18T08:48:58.686Z,25.81
2016-03-18T08:49:58.751Z,26.1
2016-03-18T08:50:58.722Z,26.22
2016-03-18T08:51:58.710Z,26.23
2016-03-18T08:52:58.728Z,26.19
2016-03-18T08:53:58.731Z,26.26
2016-03-18T08:54:58.734Z,26.44
2016-03-18T08:55:58.736Z,26.51
2016-03-18T08:56:58.738Z,26.49
2016-03-18T08:57:58.742Z,26.63
2016-03-18T08:58:58.759Z,26.85
2016-03-18T08:59:58.761Z,26.91
2016-03-18T09:00:58.764Z,27.11
2016-03-18T09:01:58.783Z,27.28
2016-03-18T09:02:58.786Z,27.47
2016-03-18T09:03:58.789Z,27.67
2016-03-18T09:04:58.775Z,27.71
2016-03-18T09:05:58.794Z,27.63
2016-03-18T09:06:58.797Z,27.71
2016-03-18T09:07:58.814Z,27.9
2016-03-18T09:08:58.677Z,28.25
2016-03-18T09:09:58.835Z,28.5
2016-03-18T09:10:58.823Z,28.56
2016-03-18T09:11:58.825Z,28.65
2016-03-18T09:12:58.813Z,28.6
2016-03-18T09:13:58.831Z,28.57
2016-03-18T09:14:58.833Z,28.65
2016-03-18T09:15:58.868Z,28.74
2016-03-18T09:16:58.839Z,28.78
2016-03-18T09:17:58.873Z,28.7
2016-03-18T09:18:58.860Z,28.72
2016-03-18T09:19:58.862Z,28.83
2016-03-18T09:20:58.865Z,28.86
2016-03-18T09:21:58.899Z,29.1
2016-03-18T09:22:58.871Z,29.18
2016-03-18T09:23:58.936Z,29.2
2016-03-18T09:24:58.907Z,29.27
2016-03-18T09:25:58.895Z,29.24
2016-03-18T09:26:58.897Z,29.09
2016-03-18T09:27:58.915Z,29.09
2016-03-18T09:28:58.918Z,29.15
2016-03-18T09:29:58.906Z,29.25
2016-03-18T09:30:58.923Z,29.31
2016-03-18T09:31:58.926Z,29.28
2016-03-18T09:32:58.914Z,29.24
2016-03-18T09:33:59.369Z,29.3
2016-03-18T09:34:58.950Z,28.96
2016-03-18T09:35:58.952Z,28.64
2016-03-18T09:36:58.956Z,28.16
2016-03-18T09:37:58.958Z,27.48
2016-03-18T09:38:58.992Z,26.85
2016-03-18T09:39:58.994Z,26.13
2016-03-18T09:40:58.997Z,25.29
2016-03-18T09:41:58.985Z,24.61
2016-03-18T09:42:58.987Z,23.77
2016-03-18T09:43:58.990Z,22.88
2016-03-18T09:44:58.993Z,22.23
2016-03-18T09:45:58.995Z,21.59
2016-03-18T09:46:58.999Z,20.71
2016-03-18T09:47:59.001Z,19.92
2016-03-18T09:48:59.018Z,19.37
2016-03-18T09:49:59.022Z,18.68
2016-03-18T09:50:59.009Z,18.08
2016-03-18T09:51:59.026Z,17.53
2016-03-18T09:52:59.046Z,17.1
2016-03-18T09:53:59.048Z,16.73
2016-03-18T09:54:59.051Z,16.5
2016-03-18T09:55:59.054Z,16.1
2016-03-18T09:56:59.040Z,15.78
2016-03-18T09:57:59.043Z,15.5
2016-03-18T09:58:59.061Z,14.99
2016-03-18T09:59:59.048Z,14.77
2016-03-18T10:00:59.066Z,14.52
2016-03-18T10:01:59.147Z,14.38
2016-03-18T10:02:59.087Z,14.36
2016-03-18T10:03:59.090Z,14.37
2016-03-18T10:04:59.092Z,14.3
2016-03-18T10:05:59.096Z,14.26
2016-03-18T10:06:59.098Z,14.05
2016-03-18T10:07:59.100Z,13.97
2016-03-18T10:08:59.167Z,13.83
2016-03-18T10:09:59.122Z,13.8
2016-03-18T10:10:59.125Z,13.8
2016-03-18T10:11:59.128Z,13.82
2016-03-18T10:12:59.114Z,13.73
2016-03-18T10:13:59.133Z,13.7
2016-03-18T10:14:59.135Z,13.67
2016-03-18T10:15:59.138Z,13.6
2016-03-18T10:16:59.141Z,13.68
2016-03-18T10:17:59.143Z,13.67
2016-03-18T10:18:59.147Z,13.55
2016-03-18T10:19:59.149Z,13.45
2016-03-18T10:20:59.152Z,13.31
2016-03-18T10:21:59.154Z,13.31
2016-03-18T10:22:59.157Z,13.2
2016-03-18T10:23:59.159Z,13.05
2016-03-18T10:24:59.037Z,13.09
2016-03-18T10:25:59.181Z,13.03
2016-03-18T10:26:59.183Z,12.9
2016-03-18T10:27:59.187Z,12.91
2016-03-18T10:28:59.032Z,12.83
2016-03-18T10:29:59.192Z,12.73
2016-03-18T10:30:59.194Z,12.7
2016-03-18T10:31:59.212Z,12.7
2016-03-18T10:32:59.214Z,12.62
2016-03-18T10:33:59.234Z,12.55
2016-03-18T10:34:59.237Z,12.69
2016-03-18T10:35:59.223Z,12.66
2016-03-18T10:36:59.226Z,12.63
2016-03-18T10:37:59.228Z,12.58
2016-03-18T10:38:59.231Z,12.57
2016-03-18T10:39:59.250Z,12.58
2016-03-18T10:40:59.252Z,12.58
2016-03-18T10:41:59.255Z,12.57
2016-03-18T10:42:59.258Z,12.63
2016-03-18T10:43:59.261Z,12.53
2016-03-18T10:44:59.263Z,12.63
2016-03-18T10:45:59.266Z,12.69
2016-03-18T10:46:59.268Z,12.8
2016-03-18T10:47:59.255Z,12.73
2016-03-18T10:48:59.274Z,12.66
2016-03-18T10:49:59.276Z,12.68
2016-03-18T10:50:59.280Z,12.55
2016-03-18T10:51:59.282Z,12.58
2016-03-18T10:52:59.284Z,12.61
2016-03-18T10:53:59.288Z,12.55
2016-03-18T10:54:59.306Z,12.58
2016-03-18T10:55:59.293Z,12.55
2016-03-18T10:56:59.296Z,12.61
2016-03-18T10:57:59.314Z,12.61
2016-03-18T10:58:59.301Z,12.57
2016-03-18T10:59:59.320Z,12.4
2016-03-18T11:00:59.322Z,12.4
2016-03-18T11:01:59.325Z,12.29
2016-03-18T11:02:59.328Z,12.32
2016-03-18T11:03:59.330Z,12.28
2016-03-18T11:04:59.333Z,12.3
2016-03-18T11:05:59.336Z,12.26
2016-03-18T11:06:59.353Z,12.35
2016-03-18T11:07:59.341Z,12.15
2016-03-18T11:08:59.359Z,12.15
2016-03-18T11:09:59.361Z,12.11
2016-03-18T11:10:59.349Z,12.17
2016-03-18T11:11:59.352Z,12.25
2016-03-18T11:12:59.354Z,12.25
2016-03-18T11:13:59.357Z,12.11
2016-03-18T11:14:59.360Z,12.1
2016-03-18T11:15:59.363Z,12.14
2016-03-18T11:16:59.365Z,12.23
2016-03-18T11:17:59.368Z,12.29
2016-03-18T11:18:59.386Z,12.26
2016-03-18T11:19:59.373Z,12.36
2016-03-18T11:20:59.407Z,12.32
2016-03-18T11:21:59.394Z,12.36
2016-03-18T11:22:59.382Z,12.43
2016-03-18T11:23:59.415Z,12.48
2016-03-18T11:24:59.402Z,12.48
2016-03-18T11:25:59.404Z,12.54
2016-03-18T11:26:59.407Z,12.48
2016-03-18T11:27:59.410Z,12.5
2016-03-18T11:28:59.429Z,12.47
2016-03-18T11:29:59.431Z,12.47
2016-03-18T11:30:59.417Z,12.37
2016-03-18T11:31:59.421Z,12.39
2016-03-18T11:32:59.423Z,12.35
2016-03-18T11:33:59.457Z,12.36
2016-03-18T11:34:59.428Z,12.39
2016-03-18T11:35:59.447Z,12.45
2016-03-18T11:36:59.434Z,12.45
2016-03-18T11:37:59.436Z,12.5
2016-03-18T11:38:59.439Z,12.5
2016-03-18T11:39:59.458Z,12.48
2016-03-18T11:40:59.445Z,12.61
2016-03-18T11:41:59.447Z,12.5
2016-03-18T11:42:59.466Z,12.53
2016-03-18T11:43:59.453Z,12.5
2016-03-18T11:44:59.472Z,12.53
2016-03-18T11:45:59.489Z,12.57
2016-03-18T11:46:59.477Z,12.5
2016-03-18T11:47:59.480Z,12.53
2016-03-18T11:48:59.482Z,12.58
2016-03-18T11:49:59.500Z,12.54
2016-03-18T11:50:59.487Z,12.58
2016-03-18T11:51:59.491Z,12.57
2016-03-18T11:52:59.477Z,12.55
2016-03-18T11:53:59.495Z,12.45
2016-03-18T11:54:59.513Z,12.53
2016-03-18T11:55:59.485Z,12.47
2016-03-18T11:56:59.504Z,12.43
2016-03-18T11:57:59.496Z,12.5
2016-03-18T11:58:59.514Z,12.47
2016-03-18T11:59:59.517Z,12.61
2016-03-18T12:00:59.519Z,12.61
2016-03-18T12:01:59.506Z,12.62
2016-03-18T12:02:59.525Z,12.58
2016-03-18T12:03:59.527Z,12.58
2016-03-18T12:04:59.530Z,12.62
2016-03-18T12:05:59.533Z,12.61
2016-03-18T12:06:59.536Z,12.58
2016-03-18T12:07:59.523Z,12.62
2016-03-18T12:08:59.541Z,12.72
2016-03-18T12:09:59.544Z,12.75
2016-03-18T12:10:59.546Z,12.75
2016-03-18T12:11:59.549Z,12.69
2016-03-18T12:12:59.552Z,12.7
2016-03-18T12:13:59.554Z,12.73
2016-03-18T12:14:59.557Z,12.73
2016-03-18T12:15:59.574Z,12.73
2016-03-18T12:16:59.547Z,12.75
2016-03-18T12:17:59.565Z,12.73
2016-03-18T12:18:59.568Z,12.81
2016-03-18T12:19:59.555Z,12.83
2016-03-18T12:20:59.588Z,12.81
2016-03-18T12:21:59.576Z,12.73
2016-03-18T12:22:59.594Z,12.69
2016-03-18T12:23:59.582Z,12.58
2016-03-18T12:24:59.584Z,12.47
2016-03-18T12:25:59.618Z,12.51
2016-03-18T12:26:59.589Z,12.53
2016-03-18T12:27:59.592Z,12.61
2016-03-18T12:28:59.595Z,12.62
2016-03-18T12:29:59.597Z,12.61
2016-03-18T12:30:59.584Z,12.55
2016-03-18T12:31:59.634Z,12.57
2016-03-18T12:32:59.606Z,12.69
2016-03-18T12:33:59.608Z,12.72
2016-03-18T12:34:59.611Z,12.68
2016-03-18T12:35:59.614Z,12.75
2016-03-18T12:36:59.617Z,12.73
2016-03-18T12:37:59.619Z,12.75
2016-03-18T12:38:59.653Z,12.73
2016-03-18T12:39:59.624Z,12.7
2016-03-18T12:40:59.627Z,12.7
2016-03-18T12:41:59.614Z,12.61
2016-03-18T12:42:59.648Z,12.57
2016-03-18T12:43:59.636Z,12.58
2016-03-18T12:44:59.638Z,12.63
2016-03-18T12:45:59.641Z,12.57
2016-03-18T12:46:59.658Z,12.58
2016-03-18T12:47:59.646Z,12.61
2016-03-18T12:48:59.664Z,12.65
2016-03-18T12:49:59.651Z,12.57
2016-03-18T12:50:59.669Z,12.76
2016-03-18T12:51:59.672Z,12.73
2016-03-18T12:52:59.675Z,12.81
2016-03-18T12:53:59.662Z,12.81
2016-03-18T12:54:59.665Z,12.88
2016-03-18T12:55:59.667Z,12.94
2016-03-18T12:56:59.685Z,13.02
2016-03-18T12:57:59.688Z,13.06
2016-03-18T12:58:59.676Z,13.05